Boyd Deep Canyon Reserve, California Weather observations

Data are for 10 minute period ending at time listed.
 Day   Time   Solar   Ave.   Ave.  Ave.  Vector  Max.   Baro.   Total    
  of    of     Rad.   Air    Rel.  Wind   Wind   Wind  Press.  Precip.   
Year   Day            Temp.  Hum.  Speed  Dir.   Gust                    
2014   (PST)  Kw/m2    F      %     mph   deg.    mph    mb.     in.     
-------------------------------------------------------------------------
 295    9:10   0.55   83.4    14    1.8    29     4.4   978.5    0.00 
 295    9:20   0.58   83.9    14    2.5   360     5.4   978.5    0.00 
 295    9:30   0.60   84.2    14    2.2    15     4.8   978.6    0.00 
 295    9:40   0.63   84.5    14    3.6     9     6.4   978.5    0.00 
 295    9:50   0.63   84.7    14    2.8   347     6.4   978.5    0.00 
 295   10:00   0.67   85.1    13    4.1   348     6.7   978.6    0.00 
 295   10:10   0.68   85.5    13    4.6   358     7.7   978.6    0.00 
 295   10:20   0.70   85.5    13    4.3   353     6.4   978.6    0.00 
 295   10:30   0.71   85.9    13    4.4   352     7.1   978.7    0.00 
 295   10:40   0.72   86.1    13    4.4   352     7.1   978.6    0.00 
 295   10:50   0.73   86.5    14    5.6   350     8.4   978.5    0.00 
 295   11:00   0.74   86.9    14    5.7     2     8.4   978.4    0.00 
 295   11:10   0.74   86.8    15    5.8    13     9.0   978.4    0.00 
 295   11:20   0.75   87.1    15    3.8    24     7.5   978.4    0.00 
 295   11:30   0.75   87.4    15    4.4    51     7.7   978.2    0.00 
 295   11:40   0.76   87.7    15    3.8    21     9.1   978.1    0.00 
 295   11:50   0.77   88.2    15    3.9   357     8.2   978.0    0.00 
 295   12:00   0.71   87.5    15    3.7    75     8.6   977.9    0.00 
 295   12:10   0.63   88.6    14    2.2    46     6.8   977.7    0.00 
 295   12:20   0.74   87.7    14    3.4    70     8.7   977.7    0.00 
 295   12:30   0.73   88.6    14    4.6    46     9.2   977.6    0.00 
 295   12:40   0.70   88.7    14    4.6    49     8.8   977.5    0.00 
 295   12:50   0.66   88.6    14    4.4    64     8.8   977.5    0.00 
 295   13:00   0.68   88.5    14    5.3    62     8.9   977.4    0.00 
 295   13:10   0.67   88.4    15    4.7    49     9.3   977.4    0.00 
 295   13:20   0.65   89.3    15    3.4    88     9.9   977.3    0.00 
 295   13:30   0.60   89.0    16    4.2    96     9.0   977.3    0.00 
 295   13:40   0.59   88.5    16    4.5    79     9.1   977.3    0.00 
 295   13:50   0.58   89.3    16    3.3    71     9.7   977.3    0.00 
 295   14:00   0.55   89.0    16    4.4    67     7.5   977.3    0.00 
 295   14:10   0.54   88.7    15    5.0    74     9.3   977.3    0.00 
 295   14:20   0.50   88.5    15    4.8    80     9.2   977.3    0.00 
 295   14:30   0.45   88.7    15    4.8    80     9.2   977.3    0.00 
 295   14:40   0.38   88.3    16    4.6    78     8.8   977.3    0.00 
 295   14:50   0.32   88.4    16    5.0    74     8.9   977.2    0.00 
 295   15:00   0.32   88.0    16    6.3    68    10.7   977.0    0.00 
 295   15:10   0.37   88.1    15    4.9    75     9.6   977.0    0.00 
 295   15:20   0.32   88.3    15    5.3    68     9.7   977.0    0.00 
 295   15:30   0.28   88.0    14    5.3    75     7.9   976.9    0.00 
 295   15:40   0.24   87.7    14    5.4    77     9.2   976.9    0.00 
 295   15:50   0.17   87.6    14    5.3    72     8.2   976.8    0.00 
 295   16:00   0.03   86.6    13    6.0    74     8.8   976.7    0.00 
 295   16:10   0.03   86.2    13    5.4    79    10.0   976.6    0.00 
 295   16:20   0.03   86.0    13    5.6    90     9.0   976.6    0.00 
 295   16:30   0.03   85.6    14    5.2    88     8.0   976.6    0.00 
 295   16:40   0.02   85.4    14    5.5    89     7.9   976.6    0.00 
 295   16:50   0.01   85.2    14    5.0    93     8.4   976.7    0.00 
 295   17:00   0.01   85.1    14    5.6    95     8.8   976.8    0.00 
 295   17:10   0.00   84.8    15    4.5   104     7.9   976.9    0.00 
 295   17:20   0.00   84.2    15    2.9   159     5.1   977.0    0.00 
 295   17:30   0.00   83.3    15    0.9   213     2.3   977.1    0.00 
 295   17:40   0.00   82.9    15    0.6   239     1.9   977.3    0.00 
 295   17:50   0.00   81.8    16    1.1   199     2.3   977.5    0.00 
 295   18:00   0.00   81.3    16    3.5   184     5.3   977.6    0.00 
 295   18:10   0.00   82.4    15    4.9   196     8.9   977.7    0.00 
 295   18:20   0.00   83.0    15    7.9   198    14.3   977.9    0.00 
 295   18:30   0.00   82.9    15   10.1   201    14.5   978.0    0.00 
 295   18:40   0.00   82.6    15    8.4   201    12.9   978.1    0.00 
 295   18:50   0.00   82.3    15    8.5   199    14.0   978.1    0.00 
 295   19:00   0.00   82.1    15    7.5   192    12.0   978.2    0.00 
 295   19:10   0.00   81.8    15    9.3   205    14.2   978.3    0.00 
 295   19:20   0.00   81.7    15   10.3   200    16.1   978.3    0.00 
 295   19:30   0.00   81.7    14    8.1   196    15.3   978.3    0.00 
 295   19:40   0.00   81.6    14    6.5   190    10.0   978.5    0.00 
 295   19:50   0.00   81.3    14    8.0   200    11.5   978.5    0.00 
 295   20:00   0.00   80.8    14    9.9   210    15.3   978.6    0.00 
 295   20:10   0.00   80.6    14    7.9   218    13.4   978.8    0.00 
 295   20:20   0.00   80.5    14    9.0   219    14.6   978.8    0.00 
 295   20:30   0.00   80.5    14    9.3   218    15.2   978.9    0.00 
 295   20:40   0.00   80.3    14    8.8   218    14.0   978.9    0.00 
 295   20:50   0.00   80.4    14    9.7   216    16.2   978.9    0.00 
 295   21:00   0.00   80.2    14    8.3   224    12.7   979.0    0.00 
 295   21:10   0.00   80.1    14    8.4   231    14.5   979.1    0.00 
 295   21:20   0.00   80.1    14    9.9   228    16.3   979.1    0.00 
 295   21:30   0.00   80.1    14   10.4   228    15.4   979.2    0.00 
 295   21:40   0.00   79.9    14   10.6   232    15.7   979.2    0.00 
 295   21:50   0.00   79.9    14    9.2   226    15.9   979.3    0.00 
 295   22:00   0.00   79.6    14    7.7   220    11.9   979.3    0.00 
 295   22:10   0.00   79.3    14    7.4   214    11.5   979.3    0.00 
 295   22:20   0.00   79.2    14    7.4   210    11.6   979.3    0.00 
 295   22:30   0.00   79.1    14    6.7   216    11.8   979.3    0.00 
 295   22:40   0.00   79.1    14    8.8   220    14.1   979.3    0.00 
 295   22:50   0.00   78.8    14    8.8   214    12.9   979.3    0.00 
 295   23:00   0.00   78.8    14    9.4   219    14.0   979.3    0.00 
 295   23:10   0.00   78.7    14    7.9   206    13.0   979.2    0.00 
 295   23:20   0.00   78.7    14    7.3   199    13.4   979.1    0.00 
 295   23:30   0.00   78.8    14    8.5   230    13.4   979.1    0.00 
 295   23:40   0.00   78.5    14    7.6   221    11.8   979.1    0.00 
 295   23:50   0.00   78.7    14    8.1   213    12.8   979.2    0.00 
 296    0:00   0.00   78.5    14    8.2   212    12.8   979.2    0.00 
 296    0:10   0.00   78.3    14    8.5   212    14.5   979.2    0.00 
 296    0:20   0.00   78.4    14    8.5   205    14.3   979.2    0.00 
 296    0:30   0.00   78.5    14    7.0   196    11.8   979.2    0.00 
 296    0:40   0.00   78.3    14    7.1   205    12.0   979.1    0.00 
 296    0:50   0.00   78.2    14    8.0   206    12.5   979.1    0.00 
 296    1:00   0.00   78.4    14   10.1   225    14.9   979.1    0.00 
 296    1:10   0.00   78.2    14    9.9   218    16.7   979.1    0.00 
 296    1:20   0.00   78.1    14   10.5   220    15.5   979.1    0.00 
 296    1:30   0.00   78.2    14   10.8   223    18.4   979.1    0.00 
 296    1:40   0.00   77.9    14    9.7   220    16.1   979.0    0.00 
 296    1:50   0.00   77.6    14   10.0   222    16.8   978.9    0.00 
 296    2:00   0.00   77.5    14    9.9   214    16.1   978.8    0.00 
 296    2:10   0.00   77.5    14    8.6   212    14.6   978.8    0.00 
 296    2:20   0.00   77.6    14    9.9   215    14.3   978.8    0.00 
 296    2:30   0.00   77.8    14   11.9   218    17.2   978.7    0.00 
 296    2:40   0.00   77.9    14   12.9   222    18.6   978.6    0.00 
 296    2:50   0.00   77.6    14   12.3   222    19.2   978.5    0.00 
 296    3:00   0.00   77.5    14    9.4   210    16.1   978.5    0.00 
 296    3:10   0.00   77.6    14    8.4   203    13.2   978.5    0.00 
 296    3:20   0.00   77.3    14    8.9   214    13.0   978.5    0.00 
 296    3:30   0.00   77.5    14    8.8   211    15.0   978.5    0.00 
 296    3:40   0.00   77.2    14    9.3   217    16.7   978.6    0.00 
 296    3:50   0.00   77.4    14   10.1   220    15.3   978.6    0.00 
 296    4:00   0.00   77.4    14    8.8   210    13.2   978.6    0.00 
 296    4:10   0.00   77.3    14    9.2   214    12.9   978.6    0.00 
 296    4:20   0.00   77.3    14    8.8   211    13.5   978.7    0.00 
 296    4:30   0.00   77.3    14    8.2   201    12.2   978.7    0.00 
 296    4:40   0.00   77.2    14    8.7   200    14.4   978.8    0.00 
 296    4:50   0.00   77.1    14    8.3   204    15.3   978.9    0.00 
 296    5:00   0.00   77.2    14   10.5   220    14.6   979.0    0.00 
 296    5:10   0.00   77.3    14   11.8   221    15.8   979.1    0.00 
 296    5:20   0.00   77.2    14   10.8   216    16.1   979.2    0.00 
 296    5:30   0.00   76.9    14   10.2   210    15.5   979.3    0.00 
 296    5:40   0.00   76.8    14    9.6   206    14.8   979.3    0.00 
 296    5:50   0.00   76.6    14    9.1   208    14.2   979.4    0.00 
 296    6:00   0.00   76.5    14    9.3   206    15.3   979.5    0.00 
 296    6:10   0.00   76.7    14   11.0   215    16.1   979.5    0.00 
 296    6:20   0.01   76.7    14   10.5   213    15.6   979.6    0.00 
 296    6:30   0.01   76.6    14    9.3   213    13.8   979.7    0.00 
 296    6:40   0.06   76.9    14    9.2   209    14.0   979.8    0.00 
 296    6:50   0.11   77.4    14    8.8   204    13.2   979.9    0.00 
 296    7:00   0.13   77.8    13    8.2   198    11.5   980.0    0.00 
 296    7:10   0.18   78.4    13    7.4   197    12.1   980.2    0.00 
 296    7:20   0.21   79.0    13    6.3   191    11.0   980.3    0.00 
 296    7:30   0.24   79.6    13    6.5   168    10.3   980.4    0.00 
 296    7:40   0.28   80.3    13    6.7   171    10.1   980.5    0.00 
 296    7:50   0.31   80.5    13    6.8   178     9.1   980.6    0.00 
 296    8:00   0.35   81.0    13    6.0   178     8.0   980.6    0.00 
 296    8:10   0.38   81.8    14    4.8   179     6.6   980.6    0.00 
 296    8:20   0.41   83.5    14    2.7   188     3.9   980.5    0.00 
 296    8:30   0.44   83.5    14    2.1   200     3.9   980.5    0.00 
 296    8:40   0.47   85.8    13    0.8   180     2.1   980.5    0.00 
 296    8:50   0.50   87.3    12    1.0   173     2.4   980.6    0.00 
 296    9:00   0.53   86.1    13    3.7   358     5.6   980.6    0.00 

Return to Boyd Deep Canyon Reserve graphs page.


Western Regional Climate Center,wrcc@dri.edu